Swift Arrow — WAFK — position and weather

sailwx.info

Track history (hours):
 
Tides and Currents Weather Stations Pressure Air Temp Water Temp Dewpoint Dewpoint Depression Visibility Wind Speed Wind Dir Waves Ship Positions

Swift Arrow

Owner: ARROW LAUNCH SERVICE INC, Port Angeles, WA. More information available from US FCC via Universal Licensing System and Coast Guard Vessel Documentation Center.

Last reported at 2015-Jan-27 11:33 UTC. Time now 2015-Jan-27 14:23 UTC.
Position N 47°20' W 122°28'.

Type: Port tender. MMSI: 369021000.

Date/timePositionNaut miles runAvg speedWind from/ knotsBaromVisibWave heightAir tempDewpointWater temp
2015-Jan-27 11:33N 47°20' W 122°28'3 3.3
2015-Jan-27 10:32N 47°17' W 122°25'2 1.8
2015-Jan-27 09:33N 47°15' W 122°26'  
2015-Jan-25 04:15N 47°15' W 122°26'1 2.1
2015-Jan-25 03:33N 47°17' W 122°27'1 1.4
2015-Jan-25 02:34N 47°15' W 122°26'0 0.0
2015-Jan-25 01:28N 47°15' W 122°26'0 0.0
2015-Jan-24 06:33N 47°15' W 122°26'0 0.0
2015-Jan-23 20:33N 47°15' W 122°26'1 1.5
2015-Jan-23 19:33N 47°16' W 122°25'4 4.5
2015-Jan-23 18:33N 47°20' W 122°28'3 0.1
2015-Jan-22 10:33N 47°18' W 122°27'3 0.4
2015-Jan-22 04:08N 47°15' W 122°26'3 5.7
2015-Jan-22 03:34N 47°18' W 122°29'2 1.5
2015-Jan-22 02:33N 47°18' W 122°31'0 0.0
2015-Jan-22 01:33N 47°18' W 122°31'5 2.3
2015-Jan-21 23:33N 47°15' W 122°26'0 0.0
2015-Jan-21 18:10N 47°15' W 122°26'2 3.6
2015-Jan-21 17:33N 47°17' W 122°26'1 0.1
2015-Jan-21 02:33N 47°16' W 122°26'1 1.3
2015-Jan-21 01:33N 47°15' W 122°26'0 0.0
2015-Jan-21 00:32N 47°15' W 122°26'0 0.0
2015-Jan-19 22:28N 47°15' W 122°26'0 0.0
2015-Jan-19 21:33N 47°15' W 122°26'0 0.0
2015-Jan-19 20:23N 47°15' W 122°26'5 6.3
2015-Jan-19 19:33N 47°20' W 122°28'5 4.9
2015-Jan-19 18:34N 47°16' W 122°26'0 0.0
2015-Jan-19 01:22N 47°15' W 122°26'2 2.0
2015-Jan-19 00:33N 47°17' W 122°25'1 0.1
2015-Jan-18 02:33N 47°16' W 122°26'3 3.5
2015-Jan-18 01:33N 47°18' W 122°30'3 0.5
2015-Jan-17 20:33N 47°17' W 122°26'0 0.1
2015-Jan-17 19:33N 47°17' W 122°26'0 0.1
2015-Jan-17 18:33N 47°17' W 122°27'  
Track history (hours):
 
Tides and Currents Weather Stations Pressure Air Temp Water Temp Dewpoint Dewpoint Depression Visibility Wind Speed Wind Dir Waves Ship Positions

Swift Arrow

Owner: ARROW LAUNCH SERVICE INC, Port Angeles, WA. More information available from US FCC via Universal Licensing System and Coast Guard Vessel Documentation Center.

Last reported at 2015-Jan-27 11:33 UTC. Time now 2015-Jan-27 14:23 UTC.
Position N 47°20' W 122°28'.

Type: Port tender. MMSI: 369021000.

Date/timePositionNaut miles runAvg speedWind from/ knotsBaromVisibWave heightAir tempDewpointWater temp
2015-Jan-27 11:33N 47°20' W 122°28'3 3.3
2015-Jan-27 10:32N 47°17' W 122°25'2 1.8
2015-Jan-27 09:33N 47°15' W 122°26'  
2015-Jan-25 04:15N 47°15' W 122°26'1 2.1
2015-Jan-25 03:33N 47°17' W 122°27'1 1.4
2015-Jan-25 02:34N 47°15' W 122°26'0 0.0
2015-Jan-25 01:28N 47°15' W 122°26'0 0.0
2015-Jan-24 06:33N 47°15' W 122°26'0 0.0
2015-Jan-23 20:33N 47°15' W 122°26'1 1.5
2015-Jan-23 19:33N 47°16' W 122°25'4 4.5
2015-Jan-23 18:33N 47°20' W 122°28'3 0.1
2015-Jan-22 10:33N 47°18' W 122°27'3 0.4
2015-Jan-22 04:08N 47°15' W 122°26'3 5.7
2015-Jan-22 03:34N 47°18' W 122°29'2 1.5
2015-Jan-22 02:33N 47°18' W 122°31'0 0.0
2015-Jan-22 01:33N 47°18' W 122°31'5 2.3
2015-Jan-21 23:33N 47°15' W 122°26'0 0.0
2015-Jan-21 18:10N 47°15' W 122°26'2 3.6
2015-Jan-21 17:33N 47°17' W 122°26'1 0.1
2015-Jan-21 02:33N 47°16' W 122°26'1 1.3
2015-Jan-21 01:33N 47°15' W 122°26'0 0.0
2015-Jan-21 00:32N 47°15' W 122°26'0 0.0
2015-Jan-19 22:28N 47°15' W 122°26'0 0.0
2015-Jan-19 21:33N 47°15' W 122°26'0 0.0
2015-Jan-19 20:23N 47°15' W 122°26'5 6.3
2015-Jan-19 19:33N 47°20' W 122°28'5 4.9
2015-Jan-19 18:34N 47°16' W 122°26'0 0.0
2015-Jan-19 01:22N 47°15' W 122°26'2 2.0
2015-Jan-19 00:33N 47°17' W 122°25'1 0.1
2015-Jan-18 02:33N 47°16' W 122°26'3 3.5
2015-Jan-18 01:33N 47°18' W 122°30'3 0.5
2015-Jan-17 20:33N 47°17' W 122°26'0 0.1
2015-Jan-17 19:33N 47°17' W 122°26'0 0.1
2015-Jan-17 18:33N 47°17' W 122°27'  

Dump ship's entire track history